Time;durP1;ratioP1;P1;durP2;ratioP2;P2;SDS_P1;SDS_P2;PMS_P1;PMS_P2;Temp;Humidity;BMP_temperature;BMP_pressure;BME280_temperature;BME280_humidity;BME280_pressure;Samples;Min_cycle;Max_cycle;Signal;HPM_P1;HPM_P2
2023/02/14 00:01:31;;;;;;;31.45;14.60;;;7.10;99.90;;;;;;5054806;28;20597;-77
2023/02/14 00:03:59;;;;;;;27.92;13.52;;;7.00;99.90;;;;;;5054746;28;20206;-79
2023/02/14 00:06:26;;;;;;;24.02;13.10;;;6.90;99.90;;;;;;5054883;28;20628;-84
2023/02/14 00:08:53;;;;;;;23.05;12.77;;;6.90;99.90;;;;;;5054023;28;20160;-83
2023/02/14 00:11:19;;;;;;;21.15;12.85;;;7.00;99.90;;;;;;5054468;28;20524;-80
2023/02/14 00:15:20;;;;;;;24.98;12.80;;;7.00;99.90;;;;;;5054455;28;20170;-82
2023/02/14 00:19:06;;;;;;;24.33;12.90;;;7.00;99.90;;;;;;5052184;28;20226;-79
2023/02/14 00:21:35;;;;;;;21.75;12.00;;;6.90;99.90;;;;;;5052596;28;20206;-81
2023/02/14 00:24:09;;;;;;;22.92;13.25;;;6.90;99.90;;;;;;5053145;28;20171;-79
2023/02/14 00:26:37;;;;;;;45.30;15.88;;;6.80;99.90;;;;;;5053142;28;20163;-80
2023/02/14 00:29:04;;;;;;;44.72;16.20;;;6.70;99.90;;;;;;5053427;28;20620;-80
2023/02/14 00:31:29;;;;;;;28.63;13.73;;;6.60;99.90;;;;;;5053567;28;20231;-79
2023/02/14 00:33:55;;;;;;;35.35;13.52;;;6.50;99.90;;;;;;5053520;28;20239;-80
2023/02/14 00:36:21;;;;;;;39.13;14.23;;;6.60;99.90;;;;;;5053092;28;20175;-80
2023/02/14 00:38:46;;;;;;;24.60;12.82;;;6.70;99.90;;;;;;5053382;28;20183;-80
2023/02/14 00:41:18;;;;;;;27.27;13.05;;;6.70;99.90;;;;;;5035519;28;20171;-79
2023/02/14 00:43:53;;;;;;;25.00;12.85;;;6.70;99.90;;;;;;5053315;28;20163;-79
2023/02/14 00:46:20;;;;;;;29.67;14.93;;;6.60;99.90;;;;;;5035110;28;20533;-79
2023/02/14 00:48:46;;;;;;;22.98;12.75;;;6.60;99.90;;;;;;5035428;28;20174;-80
2023/02/14 00:51:12;;;;;;;24.60;13.40;;;6.60;99.90;;;;;;5053491;28;20541;-81
2023/02/14 00:53:38;;;;;;;28.90;14.50;;;6.60;99.90;;;;;;5035365;28;20184;-80
2023/02/14 00:56:04;;;;;;;34.17;14.68;;;6.60;99.90;;;;;;5053090;28;20163;-79
2023/02/14 00:58:30;;;;;;;26.50;13.00;;;6.60;99.90;;;;;;5053284;28;20179;-79
2023/02/14 01:00:56;;;;;;;28.23;13.90;;;6.50;99.90;;;;;;5035510;28;20583;-79
2023/02/14 01:03:22;;;;;;;24.50;13.75;;;6.50;99.90;;;;;;5052992;28;20179;-80
2023/02/14 01:05:49;;;;;;;24.33;14.25;;;6.50;99.90;;;;;;5053968;28;20305;-82
2023/02/14 01:08:14;;;;;;;31.42;14.60;;;6.40;99.90;;;;;;5053781;28;20163;-81
2023/02/14 01:10:40;;;;;;;32.20;14.15;;;6.40;99.90;;;;;;5053359;28;20571;-80
2023/02/14 01:13:06;;;;;;;27.08;13.77;;;6.40;99.90;;;;;;5052341;28;20682;-79
2023/02/14 01:15:32;;;;;;;29.98;15.00;;;6.40;99.90;;;;;;5052450;28;20168;-79
2023/02/14 01:17:59;;;;;;;32.20;14.70;;;6.40;99.90;;;;;;5052225;28;20191;-80
2023/02/14 01:20:26;;;;;;;22.95;14.02;;;6.30;99.90;;;;;;5052597;28;20234;-79
2023/02/14 01:22:51;;;;;;;29.50;13.18;;;6.20;99.90;;;;;;5052423;28;20238;-80
2023/02/14 01:25:17;;;;;;;32.22;14.88;;;6.10;99.90;;;;;;5034859;28;20177;-80
2023/02/14 01:27:43;;;;;;;23.55;13.85;;;6.20;99.90;;;;;;5034753;28;20241;-80
2023/02/14 01:30:09;;;;;;;21.70;12.82;;;6.30;99.90;;;;;;5052829;28;20236;-81
2023/02/14 01:32:35;;;;;;;24.52;14.68;;;6.30;99.90;;;;;;5052101;28;20207;-79
2023/02/14 01:35:00;;;;;;;28.02;14.63;;;6.30;99.90;;;;;;5052439;28;20547;-79
2023/02/14 01:37:26;;;;;;;28.70;14.07;;;6.20;99.90;;;;;;5052198;28;20194;-80
2023/02/14 01:39:52;;;;;;;34.00;14.90;;;6.00;99.90;;;;;;5034137;28;20310;-79
2023/02/14 01:42:18;;;;;;;23.58;14.50;;;6.00;99.90;;;;;;5052269;28;20215;-80
2023/02/14 01:44:43;;;;;;;24.65;13.32;;;6.00;99.90;;;;;;5052309;28;20627;-79
2023/02/14 01:47:10;;;;;;;19.00;13.23;;;5.90;99.90;;;;;;5052126;28;20174;-80
2023/02/14 01:49:44;;;;;;;24.38;14.02;;;5.90;99.90;;;;;;5034418;28;20159;-79
2023/02/14 01:52:20;;;;;;;26.48;13.10;;;5.80;99.90;;;;;;5051942;28;20195;-80
2023/02/14 01:55:01;;;;;;;19.92;12.00;;;5.70;99.90;;;;;;5051949;28;20158;-80
2023/02/14 01:57:39;;;;;;;22.13;13.68;;;5.70;99.90;;;;;;5052017;28;20185;-79
2023/02/14 02:02:50;;;;;;;24.00;13.57;;;5.50;99.90;;;;;;5052204;28;20554;-79
2023/02/14 02:05:22;;;;;;;25.77;13.35;;;5.60;99.90;;;;;;5051907;28;20189;-80
2023/02/14 02:07:49;;;;;;;23.90;13.68;;;5.60;99.90;;;;;;5052285;28;20186;-80
2023/02/14 02:10:15;;;;;;;29.48;13.82;;;5.80;99.90;;;;;;5051935;28;20179;-79
2023/02/14 02:12:40;;;;;;;24.02;14.18;;;5.80;99.90;;;;;;5034040;28;20197;-80
2023/02/14 02:15:06;;;;;;;23.10;14.68;;;5.70;99.90;;;;;;5051726;28;20156;-79
2023/02/14 02:18:00;;;;;;;21.02;14.18;;;5.60;99.90;;;;;;5051719;28;20186;-80
2023/02/14 02:20:57;;;;;;;27.77;14.05;;;5.60;99.90;;;;;;5051634;28;20284;-79
2023/02/14 02:23:28;;;;;;;32.97;13.95;;;5.70;99.90;;;;;;5019244;28;20282;-78
2023/02/14 02:26:09;;;;;;;24.38;14.10;;;5.80;99.90;;;;;;5034280;28;20583;-79
2023/02/14 02:28:47;;;;;;;29.65;14.95;;;5.70;99.90;;;;;;5033616;28;20265;-79
2023/02/14 02:31:47;;;;;;;30.98;15.32;;;5.80;99.90;;;;;;5051796;28;20171;-79
2023/02/14 02:34:49;;;;;;;23.80;13.07;;;5.70;99.90;;;;;;5052019;28;20171;-79
2023/02/14 02:37:36;;;;;;;27.55;15.25;;;5.40;99.90;;;;;;5033727;28;20240;-78
2023/02/14 02:40:34;;;;;;;26.65;15.45;;;5.40;99.90;;;;;;5051787;28;20230;-79
2023/02/14 02:43:14;;;;;;;28.92;14.65;;;5.30;99.90;;;;;;5051830;28;20191;-83
2023/02/14 02:49:00;;;;;;;30.75;14.75;;;5.10;99.90;;;;;;5055667;28;20177;-78
2023/02/14 02:54:48;;;;;;;26.27;14.77;;;5.10;99.90;;;;;;5048910;28;20194;-79
2023/02/14 02:57:28;;;;;;;29.17;15.52;;;5.10;99.90;;;;;;5055525;28;20167;-79
2023/02/14 02:59:56;;;;;;;26.50;14.63;;;5.10;99.90;;;;;;5055090;28;20205;-79
2023/02/14 03:02:24;;;;;;;26.13;14.80;;;5.10;99.90;;;;;;5055201;28;20187;-86
2023/02/14 03:04:53;;;;;;;24.60;14.65;;;4.90;99.90;;;;;;5055806;28;20266;-80
2023/02/14 03:07:40;;;;;;;28.77;15.15;;;4.90;99.90;;;;;;5037694;28;20167;-79
2023/02/14 03:10:06;;;;;;;33.25;15.70;;;5.00;99.90;;;;;;5036874;28;20229;-80
2023/02/14 03:12:32;;;;;;;29.13;14.38;;;5.10;99.90;;;;;;5055483;28;20183;-86
2023/02/14 03:15:06;;;;;;;30.75;15.43;;;5.20;99.90;;;;;;5037246;28;20258;-82
2023/02/14 03:17:43;;;;;;;29.08;14.57;;;5.20;99.90;;;;;;5037117;28;20186;-83
2023/02/14 03:20:29;;;;;;;36.50;15.10;;;5.10;99.90;;;;;;5054536;28;20198;-79
2023/02/14 03:23:26;;;;;;;27.25;14.80;;;4.90;99.90;;;;;;5054819;28;20187;-79
2023/02/14 03:26:20;;;;;;;24.38;14.20;;;4.80;99.90;;;;;;5036920;28;20229;-79
2023/02/14 03:29:09;;;;;;;28.33;14.85;;;4.90;99.90;;;;;;5054778;28;20517;-79
2023/02/14 03:32:02;;;;;;;31.38;15.35;;;4.90;99.90;;;;;;5054856;28;20187;-80
2023/02/14 03:34:46;;;;;;;26.70;15.18;;;4.90;99.90;;;;;;5036391;28;20183;-84
2023/02/14 03:37:19;;;;;;;28.40;14.23;;;4.80;99.90;;;;;;5054886;28;20163;-84
2023/02/14 03:40:02;;;;;;;28.27;15.75;;;4.70;99.90;;;;;;5054533;28;20298;-81
2023/02/14 03:42:35;;;;;;;19.92;13.95;;;4.70;99.90;;;;;;5037078;28;20193;-82
2023/02/14 03:45:04;;;;;;;27.27;15.60;;;4.80;99.90;;;;;;5053938;28;20500;-90
2023/02/14 03:47:33;;;;;;;26.98;15.43;;;4.70;99.90;;;;;;5053556;28;20190;-82
2023/02/14 03:50:06;;;;;;;26.65;15.63;;;4.60;99.90;;;;;;5054000;28;20616;-81
2023/02/14 03:52:33;;;;;;;24.77;15.25;;;4.70;99.90;;;;;;5054183;28;20175;-79
2023/02/14 03:55:01;;;;;;;30.52;16.23;;;4.80;99.90;;;;;;5054242;28;20174;-82
2023/02/14 03:57:39;;;;;;;29.48;15.65;;;4.80;99.90;;;;;;5053677;28;20238;-81
2023/02/14 04:00:05;;;;;;;41.03;17.42;;;4.60;99.90;;;;;;5054567;28;20209;-80
2023/02/14 04:02:38;;;;;;;24.63;14.43;;;4.70;99.90;;;;;;5054456;28;20194;-79
2023/02/14 04:05:12;;;;;;;29.30;14.82;;;4.60;99.90;;;;;;5054857;28;20570;-85
2023/02/14 04:07:51;;;;;;;38.05;15.82;;;4.70;99.90;;;;;;5036612;28;20640;-78
2023/02/14 04:10:18;;;;;;;30.98;15.68;;;4.70;99.90;;;;;;5036492;28;20175;-80
2023/02/14 04:12:44;;;;;;;24.63;15.77;;;4.50;99.90;;;;;;5036321;28;20220;-86
2023/02/14 04:15:10;;;;;;;27.75;15.20;;;4.40;99.90;;;;;;5037299;28;20171;-89
2023/02/14 04:20:21;;;;;;;30.17;16.48;;;4.70;99.90;;;;;;5055254;28;20214;-80
2023/02/14 04:22:47;;;;;;;27.13;16.13;;;4.70;99.90;;;;;;5057905;28;20183;-79
2023/02/14 04:25:14;;;;;;;28.63;14.57;;;4.60;99.90;;;;;;5056188;28;20171;-78
2023/02/14 04:27:39;;;;;;;22.88;15.13;;;4.50;99.90;;;;;;5057041;28;20178;-78
2023/02/14 04:30:06;;;;;;;27.88;15.43;;;4.50;99.90;;;;;;5070894;28;20175;-78
2023/02/14 04:32:31;;;;;;;29.42;15.50;;;4.60;99.90;;;;;;5054822;28;20183;-78
2023/02/14 04:34:57;;;;;;;30.98;16.17;;;4.60;99.90;;;;;;5066879;28;20198;-80
2023/02/14 04:37:22;;;;;;;32.25;16.25;;;4.50;99.90;;;;;;5053436;28;20535;-78
2023/02/14 04:39:48;;;;;;;32.55;17.75;;;4.50;99.90;;;;;;5053467;28;20211;-80
2023/02/14 04:42:14;;;;;;;27.55;16.27;;;4.30;99.90;;;;;;5053377;28;20212;-80
2023/02/14 04:44:40;;;;;;;26.23;16.40;;;4.30;99.90;;;;;;5053581;28;20195;-79
2023/02/14 04:47:06;;;;;;;27.73;15.73;;;4.10;99.90;;;;;;5053718;28;20205;-79
2023/02/14 04:49:32;;;;;;;27.98;15.38;;;4.10;99.90;;;;;;5035734;28;20170;-78
2023/02/14 04:51:57;;;;;;;32.13;16.83;;;4.30;99.90;;;;;;5053243;28;20549;-79
2023/02/14 04:54:23;;;;;;;31.85;17.40;;;4.30;99.90;;;;;;5035253;28;20659;-79
2023/02/14 04:56:48;;;;;;;38.05;15.70;;;4.30;99.90;;;;;;5052703;28;20167;-78
2023/02/14 04:59:14;;;;;;;23.80;15.50;;;4.30;99.90;;;;;;5052655;28;20202;-78
2023/02/14 05:01:40;;;;;;;32.35;15.98;;;4.40;99.90;;;;;;5052579;28;20194;-80
2023/02/14 05:04:06;;;;;;;29.10;15.20;;;4.60;99.90;;;;;;5052927;28;20266;-80
2023/02/14 05:06:32;;;;;;;29.38;15.35;;;4.60;99.90;;;;;;5053217;28;20173;-79
2023/02/14 05:08:59;;;;;;;27.15;15.02;;;4.60;99.90;;;;;;5052466;28;20526;-81
2023/02/14 05:11:27;;;;;;;32.15;16.25;;;4.60;99.90;;;;;;5052926;28;20660;-81
2023/02/14 05:13:52;;;;;;;26.27;15.55;;;4.60;99.90;;;;;;5034750;28;20167;-80
2023/02/14 05:16:18;;;;;;;29.10;16.38;;;4.60;99.90;;;;;;5053071;28;20229;-79
2023/02/14 05:18:44;;;;;;;27.05;16.73;;;4.70;99.90;;;;;;5035066;28;20290;-82
2023/02/14 05:21:10;;;;;;;33.72;16.77;;;4.90;99.90;;;;;;5052524;28;20215;-80
2023/02/14 05:23:36;;;;;;;35.35;17.00;;;4.90;99.90;;;;;;5052308;28;20164;-79
2023/02/14 05:26:02;;;;;;;37.10;16.92;;;4.70;99.90;;;;;;5034791;28;20171;-78
2023/02/14 05:28:33;;;;;;;26.20;14.23;;;4.60;99.90;;;;;;5059065;28;20166;-78
2023/02/14 05:30:59;;;;;;;29.38;16.55;;;4.50;99.90;;;;;;5047410;28;20254;-80
2023/02/14 05:33:26;;;;;;;29.30;17.85;;;4.50;99.90;;;;;;5044847;28;20195;-78
2023/02/14 05:36:02;;;;;;;28.17;15.80;;;4.60;99.90;;;;;;5045387;28;20167;-79
2023/02/14 05:38:29;;;;;;;37.40;16.65;;;4.50;99.90;;;;;;5052451;28;20203;-80
2023/02/14 05:40:54;;;;;;;24.92;15.80;;;4.60;99.90;;;;;;5052594;28;20209;-79
2023/02/14 05:43:20;;;;;;;35.58;17.80;;;4.60;99.90;;;;;;5052287;28;20262;-80
2023/02/14 05:45:47;;;;;;;30.60;16.10;;;4.60;99.90;;;;;;5053053;28;20619;-81
2023/02/14 05:48:12;;;;;;;31.08;15.95;;;4.50;99.90;;;;;;5052589;28;20171;-80
2023/02/14 05:50:38;;;;;;;34.55;16.38;;;4.60;99.90;;;;;;5052774;28;20182;-82
2023/02/14 05:53:04;;;;;;;28.67;16.27;;;4.70;99.90;;;;;;5052706;28;20686;-80
2023/02/14 05:55:29;;;;;;;29.70;16.42;;;4.80;99.90;;;;;;5034369;28;20171;-78
2023/02/14 05:57:55;;;;;;;31.80;17.30;;;4.60;99.90;;;;;;5034194;28;20170;-79
2023/02/14 06:00:22;;;;;;;28.02;15.68;;;4.60;99.90;;;;;;5042393;28;20216;-78
2023/02/14 06:02:48;;;;;;;30.90;16.98;;;4.50;99.90;;;;;;5031684;28;20226;-78
2023/02/14 06:05:17;;;;;;;31.75;17.02;;;4.60;99.90;;;;;;5031815;28;20543;-78
2023/02/14 06:07:47;;;;;;;31.90;16.95;;;4.50;99.90;;;;;;5031761;28;20165;-78
2023/02/14 06:10:13;;;;;;;34.90;16.25;;;4.60;99.90;;;;;;5031727;28;20168;-78
2023/02/14 06:12:38;;;;;;;34.67;16.95;;;4.70;99.90;;;;;;5032080;28;20203;-78
2023/02/14 06:15:04;;;;;;;26.45;16.35;;;4.60;99.90;;;;;;5031734;28;20164;-79
2023/02/14 06:17:30;;;;;;;28.10;16.20;;;4.60;99.90;;;;;;5032519;28;20194;-78
2023/02/14 06:19:56;;;;;;;24.25;15.25;;;4.50;99.90;;;;;;5030935;28;20294;-80
2023/02/14 06:22:21;;;;;;;27.63;16.55;;;4.60;99.90;;;;;;5035999;28;20267;-80
2023/02/14 06:24:47;;;;;;;27.08;15.98;;;4.50;99.90;;;;;;5036164;28;20160;-79
2023/02/14 06:27:15;;;;;;;26.48;15.77;;;4.50;99.90;;;;;;5035891;28;20194;-84
2023/02/14 06:29:40;;;;;;;28.45;15.40;;;4.50;99.90;;;;;;5035689;28;20214;-78
2023/02/14 06:32:06;;;;;;;27.52;15.45;;;4.60;99.90;;;;;;5035798;28;20187;-78
2023/02/14 06:34:33;;;;;;;30.85;15.50;;;4.60;99.90;;;;;;5035884;28;20227;-78
2023/02/14 06:36:59;;;;;;;29.45;16.95;;;4.70;99.90;;;;;;5035755;28;20172;-78
2023/02/14 06:39:24;;;;;;;31.90;17.55;;;4.80;99.90;;;;;;5035273;28;20218;-78
2023/02/14 06:41:50;;;;;;;29.40;17.63;;;4.70;99.90;;;;;;5034954;28;20188;-79
2023/02/14 06:44:16;;;;;;;29.38;17.52;;;4.70;99.90;;;;;;5035570;28;20633;-79
2023/02/14 06:46:42;;;;;;;33.53;17.48;;;4.80;99.90;;;;;;5035695;28;20175;-79
2023/02/14 06:49:09;;;;;;;30.85;16.00;;;4.80;99.90;;;;;;5035633;28;20164;-78
2023/02/14 06:51:35;;;;;;;34.60;17.80;;;4.90;99.90;;;;;;5035148;28;20215;-82
2023/02/14 06:54:01;;;;;;;30.13;17.73;;;4.90;99.90;;;;;;5035130;28;20196;-78
2023/02/14 06:56:27;;;;;;;37.10;19.60;;;4.90;99.90;;;;;;5035783;28;20171;-79
2023/02/14 06:58:52;;;;;;;39.92;17.10;;;4.90;99.90;;;;;;5035136;28;20168;-78
2023/02/14 07:01:18;;;;;;;43.40;18.80;;;4.90;99.90;;;;;;5033874;28;20172;-81
2023/02/14 07:03:44;;;;;;;33.88;17.13;;;4.90;99.90;;;;;;5035501;28;20168;-82
2023/02/14 07:06:09;;;;;;;36.92;18.08;;;4.90;99.90;;;;;;5035322;28;20195;-78
2023/02/14 07:08:35;;;;;;;37.08;17.80;;;5.10;99.90;;;;;;5035132;28;20229;-80
2023/02/14 07:11:01;;;;;;;31.92;17.05;;;5.00;99.90;;;;;;5035718;28;20190;-80
2023/02/14 07:13:26;;;;;;;37.80;18.35;;;5.00;99.90;;;;;;5035343;28;20200;-80
2023/02/14 07:15:52;;;;;;;37.25;18.75;;;5.00;99.90;;;;;;5035657;28;20168;-79
2023/02/14 07:18:18;;;;;;;37.33;19.05;;;5.00;99.90;;;;;;5033907;28;20190;-79
2023/02/14 07:20:44;;;;;;;39.88;18.75;;;5.00;99.90;;;;;;5035322;28;20671;-79
2023/02/14 07:23:10;;;;;;;35.47;16.67;;;5.10;99.90;;;;;;5034927;28;20199;-79
2023/02/14 07:25:36;;;;;;;33.22;18.30;;;5.10;99.90;;;;;;5034664;28;20164;-79
2023/02/14 07:28:03;;;;;;;32.22;17.58;;;5.20;99.90;;;;;;5034971;28;20164;-89
2023/02/14 07:30:29;;;;;;;39.92;20.52;;;5.20;99.90;;;;;;5034593;28;20186;-80
2023/02/14 07:32:56;;;;;;;41.00;18.77;;;5.30;99.90;;;;;;5033384;28;20275;-78
2023/02/14 07:35:22;;;;;;;36.78;17.92;;;5.40;99.90;;;;;;5034442;28;20200;-79
2023/02/14 07:37:49;;;;;;;38.03;18.77;;;5.50;99.90;;;;;;5034718;28;20581;-79
2023/02/14 07:40:14;;;;;;;31.98;19.50;;;5.40;99.90;;;;;;5034440;28;20196;-79
2023/02/14 07:42:40;;;;;;;45.90;19.63;;;5.50;99.90;;;;;;5034190;28;20198;-79
2023/02/14 07:45:06;;;;;;;46.13;18.95;;;5.60;99.90;;;;;;5034043;28;20180;-78
2023/02/14 07:47:32;;;;;;;46.78;19.42;;;5.80;99.90;;;;;;5032601;28;20168;-77
2023/02/14 07:49:58;;;;;;;35.72;19.90;;;5.80;99.90;;;;;;5033992;28;20337;-80
2023/02/14 07:52:23;;;;;;;38.90;19.25;;;5.80;99.90;;;;;;5032667;28;20187;-79
2023/02/14 07:54:49;;;;;;;40.13;20.65;;;5.80;99.90;;;;;;5032995;28;20222;-78
2023/02/14 07:57:16;;;;;;;34.90;19.15;;;5.90;99.90;;;;;;5035509;28;20212;-79
2023/02/14 07:59:42;;;;;;;37.38;20.02;;;6.00;99.90;;;;;;5043994;28;20257;-78
2023/02/14 08:02:11;;;;;;;49.40;19.60;;;6.10;99.90;;;;;;5043856;28;20235;-80
2023/02/14 08:04:36;;;;;;;37.30;19.38;;;6.10;99.90;;;;;;5040884;28;20623;-79
2023/02/14 08:07:02;;;;;;;40.55;19.92;;;6.00;99.90;;;;;;5039294;28;20203;-81
2023/02/14 08:09:29;;;;;;;38.05;19.73;;;6.10;99.90;;;;;;5035476;28;20172;-79
2023/02/14 08:14:45;;;;;;;36.95;19.10;;;6.30;99.90;;;;;;5038906;28;20186;-79
2023/02/14 08:17:12;;;;;;;39.78;19.63;;;6.40;99.90;;;;;;5024686;28;20592;-79
2023/02/14 08:19:39;;;;;;;37.05;19.80;;;6.50;99.90;;;;;;5049993;28;23632;-80
2023/02/14 08:22:08;;;;;;;40.05;20.77;;;6.40;99.90;;;;;;5038847;28;20226;-81
2023/02/14 08:24:33;;;;;;;36.20;19.42;;;6.50;99.90;;;;;;5050247;28;20174;-80
2023/02/14 08:26:59;;;;;;;38.33;18.83;;;6.70;99.90;;;;;;5040599;28;20208;-81
2023/02/14 08:29:25;;;;;;;40.95;20.70;;;6.70;99.90;;;;;;5072816;28;20171;-80
2023/02/14 08:31:51;;;;;;;35.15;20.38;;;6.80;99.90;;;;;;5063408;28;20192;-79
2023/02/14 08:34:17;;;;;;;44.20;21.45;;;7.00;99.90;;;;;;5066431;28;20174;-80
2023/02/14 08:36:46;;;;;;;45.08;19.95;;;7.00;99.90;;;;;;5059706;28;20238;-80
2023/02/14 08:39:11;;;;;;;38.58;22.08;;;7.10;99.90;;;;;;5063346;28;20183;-79
2023/02/14 08:41:44;;;;;;;45.67;22.17;;;7.20;99.90;;;;;;5062042;28;20197;-78
2023/02/14 08:44:10;;;;;;;42.60;21.35;;;7.40;99.90;;;;;;5059818;28;20258;-79
2023/02/14 08:46:36;;;;;;;36.25;21.55;;;7.50;99.90;;;;;;5059434;28;20202;-80
2023/02/14 08:49:02;;;;;;;42.47;21.05;;;7.50;99.90;;;;;;5042242;28;20171;-80
2023/02/14 08:51:28;;;;;;;42.38;22.05;;;7.60;99.90;;;;;;5044100;28;20206;-81
2023/02/14 08:53:55;;;;;;;39.90;20.83;;;7.70;99.90;;;;;;5053573;28;20171;-81
2023/02/14 08:56:21;;;;;;;38.25;19.48;;;7.70;99.90;;;;;;5053951;28;20167;-81
2023/02/14 08:58:53;;;;;;;40.92;21.80;;;7.80;99.90;;;;;;5048713;28;20159;-81
2023/02/14 09:01:20;;;;;;;33.10;18.75;;;7.90;99.90;;;;;;5058061;28;20682;-81
2023/02/14 09:03:46;;;;;;;32.83;18.45;;;7.90;99.90;;;;;;5038617;28;20170;-82
2023/02/14 09:06:15;;;;;;;39.35;19.75;;;7.90;99.90;;;;;;5068540;28;20155;-81
2023/02/14 09:08:42;;;;;;;36.25;19.55;;;8.00;99.90;;;;;;5043651;28;20270;-81
2023/02/14 09:11:13;;;;;;;33.15;18.77;;;8.10;99.90;;;;;;5057075;28;20631;-80
2023/02/14 09:13:41;;;;;;;40.10;19.80;;;8.00;99.90;;;;;;5053090;28;20178;-80
2023/02/14 09:16:09;;;;;;;36.70;19.70;;;8.10;99.90;;;;;;5060920;28;20209;-80
2023/02/14 09:18:37;;;;;;;36.78;19.45;;;8.30;99.90;;;;;;5062399;28;20194;-80
2023/02/14 09:21:09;;;;;;;35.22;18.45;;;8.30;99.90;;;;;;5041999;28;20591;-80
2023/02/14 09:23:35;;;;;;;30.98;19.10;;;8.20;99.90;;;;;;5060088;28;20659;-79
2023/02/14 09:26:06;;;;;;;34.63;19.52;;;8.30;99.90;;;;;;5025484;28;20189;-80
2023/02/14 09:28:34;;;;;;;37.45;19.65;;;8.30;99.90;;;;;;5063487;28;20167;-79
2023/02/14 09:31:11;;;;;;;38.83;19.10;;;8.40;99.90;;;;;;5038142;28;20175;-79
2023/02/14 09:39:06;;;;;;;35.28;19.00;;;9.10;99.90;;;;;;5052268;28;20615;-79
2023/02/14 09:42:19;;;;;;;27.90;18.65;;;9.10;99.90;;;;;;5052201;28;20269;-79
2023/02/14 09:44:53;;;;;;;44.47;20.15;;;9.00;99.90;;;;;;4980168;28;20210;-79
2023/02/14 09:47:29;;;;;;;32.58;19.35;;;8.90;99.90;;;;;;5052353;28;20170;-79
2023/02/14 09:49:55;;;;;;;36.55;18.90;;;9.10;99.90;;;;;;5057594;28;20174;-79
2023/02/14 09:52:28;;;;;;;39.13;20.33;;;9.20;99.90;;;;;;5052560;28;20244;-80
2023/02/14 09:54:57;;;;;;;42.53;19.90;;;9.20;99.90;;;;;;5036180;28;20203;-83
2023/02/14 09:57:31;;;;;;;37.53;21.10;;;9.20;99.90;;;;;;5057409;28;20171;-84
2023/02/14 10:00:19;;;;;;;37.38;18.60;;;9.40;99.90;;;;;;5039231;28;20241;-84
2023/02/14 10:03:05;;;;;;;34.92;19.45;;;9.40;99.90;;;;;;5057210;28;20198;-85
2023/02/14 10:06:05;;;;;;;35.38;19.90;;;9.60;99.90;;;;;;5042439;28;20186;-85
2023/02/14 10:08:51;;;;;;;37.70;19.17;;;9.60;99.90;;;;;;5040493;28;20181;-87
2023/02/14 10:11:21;;;;;;;34.72;19.70;;;9.70;99.90;;;;;;5039970;28;20185;-86
2023/02/14 10:14:04;;;;;;;34.83;18.67;;;9.70;99.90;;;;;;5040629;28;20167;-86
2023/02/14 10:16:41;;;;;;;40.22;19.15;;;9.70;99.90;;;;;;5057250;28;20554;-87
2023/02/14 10:19:20;;;;;;;38.25;21.58;;;9.90;99.90;;;;;;5055072;28;20193;-86
2023/02/14 10:21:56;;;;;;;39.20;19.10;;;10.00;99.90;;;;;;5039899;28;20198;-89
2023/02/14 10:24:31;;;;;;;36.53;20.15;;;9.90;99.90;;;;;;5037988;28;20178;-81
2023/02/14 10:27:05;;;;;;;32.55;18.30;;;10.00;99.90;;;;;;5037545;28;20194;-81
2023/02/14 10:29:31;;;;;;;41.20;19.48;;;10.10;99.90;;;;;;5056128;28;20171;-81
2023/02/14 10:32:01;;;;;;;35.13;19.77;;;10.20;99.90;;;;;;5055823;28;20191;-81
2023/02/14 10:34:49;;;;;;;30.27;18.63;;;10.20;99.90;;;;;;5056090;28;20174;-81
2023/02/14 10:37:47;;;;;;;39.60;19.85;;;10.20;99.90;;;;;;5055466;28;20174;-81
2023/02/14 10:40:57;;;;;;;34.65;19.73;;;10.30;99.90;;;;;;5039312;28;20297;-80
2023/02/14 10:43:40;;;;;;;35.00;18.95;;;10.50;99.90;;;;;;5073108;28;20186;-80
2023/02/14 10:46:15;;;;;;;36.10;20.02;;;10.70;99.90;;;;;;5072029;28;20175;-81
2023/02/14 10:49:11;;;;;;;40.58;20.40;;;10.60;99.90;;;;;;5039181;28;20163;-81
2023/02/14 10:51:44;;;;;;;37.90;21.17;;;10.60;99.90;;;;;;5039872;28;20206;-81
2023/02/14 10:54:27;;;;;;;37.67;19.73;;;10.80;99.90;;;;;;5037966;28;20302;-81
2023/02/14 10:57:11;;;;;;;48.95;21.73;;;10.70;99.90;;;;;;5037803;28;20262;-81
2023/02/14 10:59:54;;;;;;;33.17;18.60;;;10.80;99.90;;;;;;5055529;28;20252;-81
2023/02/14 11:02:33;;;;;;;44.35;21.45;;;10.80;99.90;;;;;;5037529;28;20199;-81
2023/02/14 11:05:01;;;;;;;33.03;19.77;;;10.90;99.90;;;;;;5037155;28;20185;-80
2023/02/14 11:07:28;;;;;;;39.40;20.90;;;10.90;99.90;;;;;;5054490;28;20662;-80
2023/02/14 11:09:54;;;;;;;33.90;20.75;;;10.80;99.90;;;;;;5055799;28;20202;-81
2023/02/14 11:12:38;;;;;;;47.03;21.27;;;10.90;99.90;;;;;;5055173;28;20237;-80
2023/02/14 11:15:13;;;;;;;36.45;21.42;;;11.20;99.90;;;;;;5055283;28;20202;-80
2023/02/14 11:17:41;;;;;;;36.40;21.17;;;11.20;99.90;;;;;;5057808;28;20179;-81
2023/02/14 11:20:30;;;;;;;38.08;21.20;;;11.20;99.90;;;;;;5036920;28;20215;-81
2023/02/14 11:22:56;;;;;;;38.80;19.80;;;11.20;99.90;;;;;;5054899;28;20640;-82
2023/02/14 11:25:25;;;;;;;33.65;18.98;;;11.10;99.90;;;;;;5054885;28;20171;-81
2023/02/14 11:28:03;;;;;;;39.75;20.52;;;11.00;99.90;;;;;;5054711;28;20163;-82
2023/02/14 11:30:40;;;;;;;38.70;20.67;;;11.20;99.90;;;;;;5054617;28;20163;-80
2023/02/14 11:33:11;;;;;;;49.00;20.05;;;11.40;99.90;;;;;;5037101;28;20191;-80
2023/02/14 11:35:37;;;;;;;37.33;20.38;;;11.30;99.90;;;;;;5054844;28;20174;-80
2023/02/14 11:38:06;;;;;;;38.70;22.00;;;11.30;99.90;;;;;;5054478;28;20242;-81
2023/02/14 11:40:37;;;;;;;38.25;20.17;;;11.40;99.90;;;;;;5055472;28;20199;-80
2023/02/14 11:43:14;;;;;;;43.92;20.83;;;11.40;99.90;;;;;;5054573;28;20235;-80
2023/02/14 11:45:42;;;;;;;49.60;23.00;;;11.50;99.90;;;;;;5054691;28;20177;-80
2023/02/14 11:48:20;;;;;;;45.85;22.80;;;11.50;99.90;;;;;;5036373;28;20195;-81
2023/02/14 11:51:01;;;;;;;40.00;20.75;;;11.60;99.90;;;;;;5054812;28;20173;-81
2023/02/14 11:53:36;;;;;;;36.78;20.48;;;11.50;99.90;;;;;;5036215;28;20183;-81
2023/02/14 11:56:02;;;;;;;41.65;22.55;;;11.30;99.90;;;;;;5036603;28;20261;-80
2023/02/14 11:58:33;;;;;;;36.03;20.92;;;11.40;99.90;;;;;;5053851;28;20253;-80
2023/02/14 12:01:00;;;;;;;35.88;19.83;;;11.40;99.90;;;;;;5054726;28;20672;-86
2023/02/14 12:03:28;;;;;;;41.30;21.10;;;11.60;99.90;;;;;;5053872;28;20179;-80
2023/02/14 12:05:59;;;;;;;41.70;20.65;;;11.70;99.90;;;;;;5054660;28;20301;-83
2023/02/14 12:08:28;;;;;;;39.50;18.95;;;11.70;99.90;;;;;;5053946;28;20167;-81
2023/02/14 12:11:16;;;;;;;38.03;20.35;;;11.60;99.90;;;;;;5054072;28;20558;-81
2023/02/14 12:13:54;;;;;;;45.72;20.90;;;11.80;99.90;;;;;;5029976;28;20171;-84
2023/02/14 12:16:34;;;;;;;33.75;19.50;;;11.80;99.90;;;;;;5033701;28;20627;-82
2023/02/14 12:19:09;;;;;;;33.35;19.52;;;11.90;99.90;;;;;;5033273;28;20235;-82
2023/02/14 12:21:47;;;;;;;32.85;18.35;;;11.90;99.90;;;;;;5037097;28;20289;-81
2023/02/14 12:24:21;;;;;;;40.58;20.17;;;12.00;99.90;;;;;;5016284;28;20182;-80
2023/02/14 12:27:14;;;;;;;39.25;21.60;;;12.00;99.90;;;;;;5033381;28;20167;-83
2023/02/14 12:29:50;;;;;;;31.73;19.30;;;11.90;99.90;;;;;;5033651;28;20214;-82
2023/02/14 12:32:24;;;;;;;40.08;20.38;;;12.10;99.90;;;;;;5033444;28;20187;-80
2023/02/14 12:34:54;;;;;;;46.45;20.38;;;12.10;99.90;;;;;;4999920;28;20182;-85
2023/02/14 12:37:23;;;;;;;37.88;20.80;;;12.00;99.90;;;;;;5033873;28;20254;-87
2023/02/14 12:40:19;;;;;;;42.15;19.73;;;11.90;99.90;;;;;;5033309;28;20211;-81
2023/02/14 12:43:23;;;;;;;40.05;19.25;;;11.90;99.90;;;;;;5033005;28;20326;-79
2023/02/14 12:45:57;;;;;;;41.15;19.80;;;12.00;99.90;;;;;;5032877;28;20528;-78
2023/02/14 12:48:48;;;;;;;44.15;21.23;;;12.20;99.90;;;;;;5032207;28;20176;-82
2023/02/14 12:51:22;;;;;;;37.45;19.58;;;12.20;99.90;;;;;;5033134;28;20167;-80
2023/02/14 12:54:09;;;;;;;41.90;21.55;;;12.10;99.90;;;;;;5033329;28;20173;-79
2023/02/14 12:56:46;;;;;;;38.67;20.60;;;12.00;99.90;;;;;;5033060;28;20168;-80
2023/02/14 12:59:37;;;;;;;37.05;21.67;;;12.10;99.90;;;;;;5014811;28;20187;-80
2023/02/14 13:02:26;;;;;;;35.45;20.25;;;12.10;99.90;;;;;;5032707;28;20184;-79
2023/02/14 13:05:13;;;;;;;43.25;19.55;;;12.20;99.90;;;;;;4995123;28;20210;-80
2023/02/14 13:07:54;;;;;;;39.42;20.08;;;12.20;99.90;;;;;;5032960;28;20292;-82
2023/02/14 13:10:19;;;;;;;40.63;20.65;;;12.30;99.90;;;;;;5033064;28;20255;-80
2023/02/14 13:12:59;;;;;;;38.20;21.63;;;12.50;99.90;;;;;;5032873;28;20321;-80
2023/02/14 13:16:03;;;;;;;58.47;23.15;;;12.30;99.90;;;;;;5015235;28;20168;-80
2023/02/14 13:19:11;;;;;;;38.53;20.88;;;12.20;99.90;;;;;;4952505;28;20201;-80
2023/02/14 13:21:39;;;;;;;39.15;20.73;;;12.20;99.90;;;;;;5023495;28;20298;-84